createdAt,value
2022-12-14T00:01:49.305Z,-6.90
2022-12-14T00:04:16.834Z,-6.90
2022-12-14T00:06:43.724Z,-6.70
2022-12-14T00:09:12.539Z,-6.70
2022-12-14T00:11:39.423Z,-6.70
2022-12-14T00:14:06.418Z,-6.70
2022-12-14T00:16:35.979Z,-6.70
2022-12-14T00:19:05.351Z,-6.70
2022-12-14T00:21:35.556Z,-6.60
2022-12-14T00:24:03.836Z,-6.60
2022-12-14T00:26:32.446Z,-6.60
2022-12-14T00:29:01.814Z,-6.60
2022-12-14T00:31:31.482Z,-6.60
2022-12-14T00:33:59.783Z,-6.50
2022-12-14T00:36:27.833Z,-6.50
2022-12-14T00:38:54.689Z,-6.50
2022-12-14T00:41:21.659Z,-6.50
2022-12-14T00:43:49.780Z,-6.40
2022-12-14T00:46:20.548Z,-6.40
2022-12-14T00:48:49.120Z,-6.40
2022-12-14T00:51:16.015Z,-6.40
2022-12-14T00:53:44.960Z,-6.30
2022-12-14T00:56:13.525Z,-6.40
2022-12-14T00:58:43.738Z,-6.40
2022-12-14T01:01:13.492Z,-6.30
2022-12-14T01:03:42.526Z,-6.30
2022-12-14T01:06:19.991Z,-6.30
2022-12-14T01:08:48.716Z,-6.20
2022-12-14T01:11:17.986Z,-6.20
2022-12-14T01:13:49.213Z,-6.10
2022-12-14T01:16:18.910Z,-6.10
2022-12-14T01:18:47.980Z,-6.10
2022-12-14T01:21:21.559Z,-6.00
2022-12-14T01:23:56.164Z,-6.10
2022-12-14T01:26:26.803Z,-6.20
2022-12-14T01:28:57.616Z,-6.20
2022-12-14T01:31:32.273Z,-6.10
2022-12-14T01:34:01.958Z,-6.10
2022-12-14T01:36:31.967Z,-6.10
2022-12-14T01:39:02.524Z,-6.10
2022-12-14T01:41:32.311Z,-6.10
2022-12-14T01:44:04.240Z,-6.10
2022-12-14T01:46:49.501Z,-6.00
2022-12-14T01:49:30.332Z,-6.10
2022-12-14T01:52:18.187Z,-6.10
2022-12-14T01:54:57.314Z,-6.00
2022-12-14T01:57:34.146Z,-6.00
2022-12-14T02:00:07.201Z,-6.00
2022-12-14T02:02:38.221Z,-6.10
2022-12-14T02:05:09.917Z,-6.00
2022-12-14T03:27:37.164Z,-5.20
2022-12-14T03:30:10.684Z,-5.20
2022-12-14T03:32:44.889Z,-5.10
2022-12-14T03:35:18.994Z,-5.10
2022-12-14T03:38:08.292Z,-5.00
2022-12-14T03:41:00.623Z,-5.00
2022-12-14T03:43:37.620Z,-4.90
2022-12-14T03:46:25.509Z,-4.80
2022-12-14T03:49:26.759Z,-4.80
2022-12-14T03:52:07.720Z,-4.80
2022-12-14T03:54:52.125Z,-4.70
2022-12-14T03:57:57.517Z,-4.70
2022-12-14T04:00:27.101Z,-4.60
2022-12-14T04:03:35.725Z,-4.60
2022-12-14T04:06:18.912Z,-4.60
2022-12-14T04:09:30.167Z,-4.50
2022-12-14T04:12:35.594Z,-4.50
2022-12-14T04:15:32.225Z,-4.50
2022-12-14T04:18:23.745Z,-4.50
2022-12-14T04:21:01.647Z,-4.50
2022-12-14T04:23:54.777Z,-4.50
2022-12-14T04:26:28.939Z,-4.40
2022-12-14T04:29:22.637Z,-4.40
2022-12-14T04:31:57.808Z,-4.40
2022-12-14T04:34:28.124Z,-4.30
2022-12-14T04:37:02.186Z,-4.30
2022-12-14T04:39:42.676Z,-4.30
2022-12-14T04:42:13.683Z,-4.20
2022-12-14T04:44:51.865Z,-4.20
2022-12-14T04:47:20.090Z,-4.20
2022-12-14T04:50:08.616Z,-4.20
2022-12-14T04:52:45.316Z,-4.10
2022-12-14T04:55:47.905Z,-4.10
2022-12-14T04:58:26.023Z,-4.10
2022-12-14T05:01:22.652Z,-4.00
2022-12-14T05:04:12.587Z,-4.00
2022-12-14T05:07:27.523Z,-4.00
2022-12-14T05:10:04.715Z,-3.90
2022-12-14T05:12:57.859Z,-3.80
2022-12-14T05:15:33.844Z,-3.80
2022-12-14T05:18:05.731Z,-3.80
2022-12-14T05:20:33.321Z,-3.80
2022-12-14T05:23:00.976Z,-3.80
2022-12-14T05:25:28.645Z,-3.80
2022-12-14T05:27:55.678Z,-3.80
2022-12-14T05:30:23.499Z,-3.70
2022-12-14T05:32:53.670Z,-3.70
2022-12-14T05:35:20.705Z,-3.60
2022-12-14T05:37:49.415Z,-3.60
2022-12-14T05:40:16.537Z,-3.50
2022-12-14T05:42:46.065Z,-3.50
2022-12-14T05:45:16.046Z,-3.50
2022-12-14T05:47:45.044Z,-3.40
2022-12-14T05:50:13.455Z,-3.40
2022-12-14T05:52:42.196Z,-3.30
2022-12-14T05:55:10.503Z,-3.30
2022-12-14T05:57:38.986Z,-3.20
2022-12-14T06:00:07.090Z,-3.20
2022-12-14T06:02:34.003Z,-3.20
2022-12-14T06:05:02.904Z,-3.10
2022-12-14T06:07:31.338Z,-3.10
2022-12-14T06:09:59.064Z,-3.10
2022-12-14T06:12:26.615Z,-3.00
2022-12-14T06:14:56.370Z,-3.00
2022-12-14T06:17:24.068Z,-3.00
2022-12-14T06:19:52.392Z,-2.90
2022-12-14T06:22:25.332Z,-2.90
2022-12-14T06:24:54.082Z,-2.80
2022-12-14T06:27:22.610Z,-2.80
2022-12-14T06:29:49.542Z,-2.80
2022-12-14T06:32:17.127Z,-2.70
2022-12-14T06:34:46.959Z,-2.70
2022-12-14T06:37:14.645Z,-2.60
2022-12-14T06:39:42.984Z,-2.60
2022-12-14T06:42:11.997Z,-2.60
2022-12-14T06:44:40.303Z,-2.50
2022-12-14T06:47:09.960Z,-2.50
2022-12-14T06:49:38.310Z,-2.50
2022-12-14T06:52:06.759Z,-2.50
2022-12-14T06:54:33.716Z,-2.40
2022-12-14T06:57:01.619Z,-2.30
2022-12-14T06:59:31.944Z,-2.30
2022-12-14T07:01:58.938Z,-2.30
2022-12-14T07:04:26.662Z,-2.30
2022-12-14T07:06:54.397Z,-2.30
2022-12-14T07:09:21.268Z,-2.30
2022-12-14T07:11:51.489Z,-2.20
2022-12-14T07:14:21.260Z,-2.20
2022-12-14T07:16:50.253Z,-2.10
2022-12-14T07:19:18.791Z,-2.10
2022-12-14T07:21:46.645Z,-2.10
2022-12-14T07:24:14.647Z,-2.10
2022-12-14T07:26:41.691Z,-2.10
2022-12-14T07:29:12.157Z,-2.00
2022-12-14T07:31:40.726Z,-2.00
2022-12-14T07:34:07.679Z,-1.90
2022-12-14T07:36:35.980Z,-1.90
2022-12-14T07:39:03.738Z,-1.90
2022-12-14T07:41:31.845Z,-1.90
2022-12-14T07:44:01.104Z,-1.90
2022-12-14T07:46:30.690Z,-1.90
2022-12-14T07:49:00.335Z,-1.80
2022-12-14T07:51:31.509Z,-1.90
2022-12-14T07:54:00.854Z,-1.90
2022-12-14T07:56:34.414Z,-1.80
2022-12-14T07:59:04.379Z,-1.80
2022-12-14T08:01:34.853Z,-1.80
2022-12-14T08:04:15.281Z,-1.70
2022-12-14T08:06:46.927Z,-1.80
2022-12-14T08:09:17.324Z,-1.80
2022-12-14T08:11:46.378Z,-1.80
2022-12-14T08:14:17.681Z,-1.80
2022-12-14T08:16:46.632Z,-1.90
2022-12-14T08:19:16.994Z,-1.90
2022-12-14T08:21:45.861Z,-1.90
2022-12-14T08:24:17.005Z,-1.80
2022-12-14T08:26:48.985Z,-1.80
2022-12-14T08:29:17.825Z,-1.80
2022-12-14T08:31:44.792Z,-1.80
2022-12-14T08:34:12.894Z,-1.80
2022-12-14T08:36:41.161Z,-1.80
2022-12-14T08:39:10.751Z,-1.70
2022-12-14T08:41:40.209Z,-1.70
2022-12-14T08:44:07.311Z,-1.80
2022-12-14T08:46:37.622Z,-1.70
2022-12-14T08:49:06.160Z,-1.70
2022-12-14T08:51:37.812Z,-1.60
2022-12-14T08:54:06.493Z,-1.60
2022-12-14T08:56:34.287Z,-1.60
2022-12-14T08:59:01.890Z,-1.60
2022-12-14T09:01:33.863Z,-1.50
2022-12-14T09:04:08.428Z,-1.50
2022-12-14T09:06:38.118Z,-1.50
2022-12-14T09:09:10.692Z,-1.50
2022-12-14T09:11:42.460Z,-1.50
2022-12-14T09:14:10.757Z,-1.50
2022-12-14T09:16:37.874Z,-1.50
2022-12-14T09:19:06.034Z,-1.40
2022-12-14T09:21:34.912Z,-1.40
2022-12-14T09:24:02.562Z,-1.40
2022-12-14T09:26:29.990Z,-1.40
2022-12-14T09:28:59.255Z,-1.40
2022-12-14T09:31:28.013Z,-1.40
2022-12-14T09:33:55.236Z,-1.30
2022-12-14T09:36:28.064Z,-1.30
2022-12-14T09:38:57.860Z,-1.30
2022-12-14T09:41:38.863Z,-1.20
2022-12-14T09:44:40.828Z,-1.20
2022-12-14T09:47:11.144Z,-1.20
2022-12-14T09:50:01.791Z,-1.20
2022-12-14T09:52:40.714Z,-1.10
2022-12-14T09:55:23.911Z,-1.10
2022-12-14T09:57:56.649Z,-1.10
2022-12-14T10:00:23.607Z,-1.00
2022-12-14T10:03:15.569Z,-1.00
2022-12-14T10:05:46.139Z,-1.00
2022-12-14T10:08:30.224Z,-0.90
2022-12-14T10:11:04.776Z,-0.90
2022-12-14T10:13:38.074Z,-0.80
2022-12-14T10:16:31.886Z,-0.80
2022-12-14T10:19:02.210Z,-0.80
2022-12-14T10:21:57.664Z,-0.70
2022-12-14T10:24:33.147Z,-0.70
2022-12-14T10:27:02.008Z,-0.70
2022-12-14T10:29:50.429Z,-0.60
2022-12-14T10:32:28.877Z,-0.60
2022-12-14T10:34:57.219Z,-0.60
2022-12-14T10:37:35.633Z,-0.50
2022-12-14T10:40:11.603Z,-0.40
2022-12-14T10:43:10.949Z,-0.40
2022-12-14T10:45:54.248Z,-0.30
2022-12-14T10:48:49.621Z,-0.30
2022-12-14T10:51:24.711Z,-0.30
2022-12-14T10:53:58.125Z,-0.30
2022-12-14T10:56:32.421Z,-0.30
2022-12-14T10:59:20.748Z,-0.30
2022-12-14T11:01:52.946Z,-0.30
2022-12-14T11:04:31.432Z,-0.20
2022-12-14T11:07:09.552Z,-0.20
2022-12-14T11:09:37.380Z,-0.20
2022-12-14T11:12:07.494Z,-0.10
2022-12-14T11:14:37.605Z,-0.20
2022-12-14T11:17:06.227Z,-0.20
2022-12-14T11:19:33.920Z,-0.20
2022-12-14T11:22:17.141Z,-0.20
2022-12-14T11:24:49.193Z,-0.20
2022-12-14T11:27:21.350Z,-0.10
2022-12-14T11:29:51.203Z,-0.10
2022-12-14T11:32:24.523Z,-0.10
2022-12-14T11:34:59.521Z,-0.10
2022-12-14T11:37:30.725Z,-0.10
2022-12-14T11:40:01.013Z,-0.10
2022-12-14T11:42:29.240Z,-0.10
2022-12-14T11:45:26.204Z,-0.10
2022-12-14T11:48:23.557Z,-0.10
2022-12-14T11:50:54.351Z,-0.10
2022-12-14T11:53:23.560Z,-0.10
2022-12-14T11:55:58.205Z,-0.10
2022-12-14T11:58:33.331Z,-0.10
2022-12-14T12:01:25.409Z,-0.10
2022-12-14T12:03:58.577Z,-0.20
2022-12-14T12:06:29.852Z,-0.20
2022-12-14T12:09:03.183Z,-0.20
2022-12-14T12:11:33.560Z,-0.20
2022-12-14T12:14:17.713Z,-0.30
2022-12-14T12:16:46.019Z,-0.30
2022-12-14T12:19:19.335Z,-0.40
2022-12-14T12:21:48.253Z,-0.40
2022-12-14T12:24:29.558Z,-0.40
2022-12-14T12:27:02.777Z,-0.40
2022-12-14T12:29:40.632Z,-0.40
2022-12-14T12:32:25.228Z,-0.40
2022-12-14T12:35:14.309Z,-0.40
2022-12-14T12:37:57.256Z,-0.40
2022-12-14T12:40:29.986Z,-0.50
2022-12-14T12:43:12.935Z,-0.40
2022-12-14T12:45:47.554Z,-0.50
2022-12-14T12:48:41.624Z,-0.50
2022-12-14T12:51:24.027Z,-0.50
2022-12-14T12:53:56.500Z,-0.50
2022-12-14T12:57:00.135Z,-0.50
2022-12-14T12:59:30.623Z,-0.50
2022-12-14T13:02:06.025Z,-0.50
2022-12-14T13:04:39.298Z,-0.60
2022-12-14T13:07:39.893Z,-0.60
2022-12-14T13:10:24.024Z,-0.70
2022-12-14T13:13:10.176Z,-0.80
2022-12-14T13:15:44.041Z,-0.80
2022-12-14T13:18:41.088Z,-0.80
2022-12-14T13:21:32.684Z,-0.80
2022-12-14T13:24:01.196Z,-0.90
2022-12-14T13:26:58.295Z,-0.90
2022-12-14T13:29:45.584Z,-0.90
2022-12-14T13:32:45.570Z,-1.00
2022-12-14T13:35:19.784Z,-1.10
2022-12-14T13:38:15.525Z,-1.10
2022-12-14T13:41:00.078Z,-1.20
2022-12-14T13:43:52.042Z,-1.20
2022-12-14T13:46:26.836Z,-1.30
2022-12-14T13:49:03.041Z,-1.30
2022-12-14T13:51:40.554Z,-1.40
2022-12-14T13:54:21.160Z,-1.30
2022-12-14T13:56:49.824Z,-1.30
2022-12-14T13:59:33.094Z,-1.30
2022-12-14T14:02:01.878Z,-1.40
2022-12-14T14:04:34.077Z,-1.50
2022-12-14T14:07:24.086Z,-1.50
2022-12-14T14:10:00.920Z,-1.50
2022-12-14T14:12:29.339Z,-1.50
2022-12-14T14:15:12.447Z,-1.50
2022-12-14T14:17:48.938Z,-1.50
2022-12-14T14:20:42.776Z,-1.60
2022-12-14T14:23:14.518Z,-1.60
2022-12-14T14:25:52.022Z,-1.60
2022-12-14T14:28:27.684Z,-1.50
2022-12-14T14:30:59.644Z,-1.60
2022-12-14T14:33:48.026Z,-1.60
2022-12-14T14:36:33.374Z,-1.60
2022-12-14T14:39:10.663Z,-1.50
2022-12-14T14:41:55.653Z,-1.60
2022-12-14T14:44:34.057Z,-1.60
2022-12-14T14:47:07.323Z,-1.60
2022-12-14T14:49:40.075Z,-1.60
2022-12-14T14:52:37.520Z,-1.60
2022-12-14T14:55:53.982Z,-1.60
2022-12-14T14:58:33.990Z,-1.70
2022-12-14T15:01:08.700Z,-1.60
2022-12-14T15:03:43.676Z,-1.60
2022-12-14T15:06:33.439Z,-1.60
2022-12-14T15:09:09.119Z,-1.60
2022-12-14T15:11:52.008Z,-1.60
2022-12-14T15:14:35.462Z,-1.60
2022-12-14T15:17:18.783Z,-1.60
2022-12-14T15:19:51.452Z,-1.60
2022-12-14T15:22:21.689Z,-1.60
2022-12-14T15:24:52.182Z,-1.60
2022-12-14T15:27:35.595Z,-1.60
2022-12-14T15:30:07.301Z,-1.70
2022-12-14T15:32:39.004Z,-1.70
2022-12-14T15:35:34.316Z,-1.60
2022-12-14T15:38:14.552Z,-1.60
2022-12-14T15:40:56.961Z,-1.60
2022-12-14T15:43:27.073Z,-1.60
2022-12-14T15:46:04.347Z,-1.60
2022-12-14T15:48:36.312Z,-1.60
2022-12-14T15:51:13.078Z,-1.60
2022-12-14T15:53:43.388Z,-1.60
2022-12-14T15:56:28.982Z,-1.60
2022-12-14T15:59:00.784Z,-1.60
2022-12-14T16:01:33.242Z,-1.60
2022-12-14T16:04:05.611Z,-1.70
2022-12-14T16:06:39.595Z,-1.60
2022-12-14T16:09:26.140Z,-1.60
2022-12-14T16:11:56.754Z,-1.60
2022-12-14T16:14:29.247Z,-1.70
2022-12-14T16:16:58.804Z,-1.60
2022-12-14T16:19:50.402Z,-1.60
2022-12-14T16:22:23.947Z,-1.60
2022-12-14T16:25:07.397Z,-1.50
2022-12-14T16:27:42.476Z,-1.60
2022-12-14T16:30:32.659Z,-1.60
2022-12-14T16:33:20.193Z,-1.70
2022-12-14T16:36:19.538Z,-1.70
2022-12-14T16:39:15.326Z,-1.60
2022-12-14T16:41:55.377Z,-1.70
2022-12-14T16:44:29.116Z,-1.70
2022-12-14T16:47:02.752Z,-1.80
2022-12-14T16:49:40.293Z,-1.80
2022-12-14T16:52:26.370Z,-1.80
2022-12-14T16:55:11.880Z,-1.80
2022-12-14T16:57:49.474Z,-1.80
2022-12-14T17:00:29.865Z,-1.80
2022-12-14T17:03:01.236Z,-1.90
2022-12-14T17:05:39.976Z,-1.90
2022-12-14T17:08:08.401Z,-1.90
2022-12-14T17:10:39.228Z,-1.90
2022-12-14T17:13:06.135Z,-1.90
2022-12-14T17:15:35.313Z,-1.90
2022-12-14T17:18:07.007Z,-1.90
2022-12-14T17:20:36.893Z,-2.00
2022-12-14T17:23:09.715Z,-2.00
2022-12-14T17:25:36.881Z,-2.10
2022-12-14T17:28:30.660Z,-2.10
2022-12-14T17:31:01.755Z,-2.10
2022-12-14T17:33:32.249Z,-2.20
2022-12-14T17:36:01.520Z,-2.20
2022-12-14T17:38:31.364Z,-2.30
2022-12-14T17:40:59.184Z,-2.30
2022-12-14T17:43:57.642Z,-2.30
2022-12-14T17:46:26.167Z,-2.30
2022-12-14T17:48:58.370Z,-2.30
2022-12-14T17:51:30.068Z,-2.30
2022-12-14T17:53:59.048Z,-2.40
2022-12-14T17:56:28.336Z,-2.40
2022-12-14T17:58:58.121Z,-2.40
2022-12-14T18:01:26.492Z,-2.40
2022-12-14T18:03:54.280Z,-2.40
2022-12-14T18:06:21.261Z,-2.40
2022-12-14T18:08:49.497Z,-2.40
2022-12-14T18:11:20.938Z,-2.50
2022-12-14T18:13:49.640Z,-2.50
2022-12-14T18:16:20.526Z,-2.60
2022-12-14T18:18:53.981Z,-2.60
2022-12-14T18:21:24.648Z,-2.60
2022-12-14T18:23:52.926Z,-2.60
2022-12-14T18:26:22.647Z,-2.60
2022-12-14T18:28:54.106Z,-2.70
2022-12-14T18:31:43.312Z,-2.80
2022-12-14T18:34:14.177Z,-2.90
2022-12-14T18:36:43.884Z,-2.90
2022-12-14T18:39:12.604Z,-2.90
2022-12-14T18:41:43.159Z,-2.90
2022-12-14T18:44:12.415Z,-2.90
2022-12-14T18:46:41.735Z,-2.90
2022-12-14T18:49:11.059Z,-2.90
2022-12-14T18:51:39.693Z,-2.90
2022-12-14T18:54:10.819Z,-2.80
2022-12-14T18:56:42.148Z,-2.90
2022-12-14T18:59:13.028Z,-2.80
2022-12-14T19:01:41.706Z,-2.80
2022-12-14T19:04:09.870Z,-2.80
2022-12-14T19:06:45.858Z,-2.80
2022-12-14T19:09:15.461Z,-2.80
2022-12-14T19:11:47.206Z,-2.90
2022-12-14T19:14:16.704Z,-2.90
2022-12-14T19:16:44.556Z,-2.80
2022-12-14T19:19:13.389Z,-2.80
2022-12-14T19:21:41.250Z,-2.90
2022-12-14T19:24:14.461Z,-2.90
2022-12-14T19:26:43.519Z,-2.90
2022-12-14T19:29:17.927Z,-2.90
2022-12-14T19:31:53.876Z,-2.90
2022-12-14T19:34:24.985Z,-2.90
2022-12-14T19:36:53.484Z,-2.90
2022-12-14T19:39:21.467Z,-2.90
2022-12-14T19:41:50.644Z,-2.90
2022-12-14T19:44:19.809Z,-3.00
2022-12-14T19:46:49.377Z,-3.00
2022-12-14T19:49:17.769Z,-3.10
2022-12-14T19:51:46.221Z,-3.00
2022-12-14T19:54:15.329Z,-3.10
2022-12-14T19:56:44.327Z,-3.00
2022-12-14T19:59:16.337Z,-3.00
2022-12-14T20:01:48.214Z,-3.00
2022-12-14T20:04:18.290Z,-2.90
2022-12-14T20:06:47.514Z,-3.00
2022-12-14T20:09:19.097Z,-3.00
2022-12-14T20:11:47.356Z,-3.10
2022-12-14T20:14:16.336Z,-3.10
2022-12-14T20:16:45.409Z,-3.00
2022-12-14T20:19:13.941Z,-3.10
2022-12-14T20:21:43.142Z,-3.10
2022-12-14T20:24:14.067Z,-3.10
2022-12-14T20:26:43.207Z,-3.10
2022-12-14T20:29:12.436Z,-3.10
2022-12-14T20:31:40.379Z,-3.10
2022-12-14T20:34:09.866Z,-3.10
2022-12-14T20:36:37.741Z,-3.10
2022-12-14T20:39:06.438Z,-3.10
2022-12-14T20:41:34.520Z,-3.20
2022-12-14T20:44:07.934Z,-3.20
2022-12-14T20:46:38.120Z,-3.20
2022-12-14T20:49:09.912Z,-3.20
2022-12-14T20:51:38.752Z,-3.10
2022-12-14T20:54:11.438Z,-3.20
2022-12-14T20:56:40.920Z,-3.20
2022-12-14T20:59:10.180Z,-3.20
2022-12-14T21:01:40.123Z,-3.20
2022-12-14T21:04:09.351Z,-3.20
2022-12-14T21:06:41.246Z,-3.30
2022-12-14T21:09:12.363Z,-3.20
2022-12-14T21:12:08.965Z,-3.20
2022-12-14T21:14:42.514Z,-3.20
2022-12-14T21:17:11.143Z,-3.20
2022-12-14T21:19:40.301Z,-3.20
2022-12-14T21:22:12.859Z,-3.10
2022-12-14T21:25:02.545Z,-3.20
2022-12-14T21:27:31.999Z,-3.10
2022-12-14T21:30:00.853Z,-3.10
2022-12-14T21:32:29.364Z,-3.10
2022-12-14T21:34:57.824Z,-3.10
2022-12-14T21:37:27.552Z,-3.20
2022-12-14T21:39:56.153Z,-3.20
2022-12-14T21:42:26.593Z,-3.20
2022-12-14T21:44:55.487Z,-3.30
2022-12-14T21:47:29.236Z,-3.30
2022-12-14T21:49:56.986Z,-3.30
2022-12-14T21:52:26.212Z,-3.20
2022-12-14T21:54:55.384Z,-3.30
2022-12-14T21:57:50.047Z,-3.20
2022-12-14T22:00:21.665Z,-3.30
2022-12-14T22:02:49.483Z,-3.30
2022-12-14T22:05:17.468Z,-3.30
2022-12-14T22:07:45.213Z,-3.40
2022-12-14T22:10:13.104Z,-3.40
2022-12-14T22:12:40.096Z,-3.30
2022-12-14T22:15:09.273Z,-3.30
2022-12-14T22:17:36.961Z,-3.40
2022-12-14T22:20:05.793Z,-3.40
2022-12-14T22:22:33.699Z,-3.40
2022-12-14T22:25:00.766Z,-3.40
2022-12-14T22:27:27.720Z,-3.30
2022-12-14T22:29:55.305Z,-3.40
2022-12-14T22:32:23.685Z,-3.40
2022-12-14T22:34:53.286Z,-3.40
2022-12-14T22:37:21.879Z,-3.40
2022-12-14T22:39:48.817Z,-3.30
2022-12-14T22:42:16.555Z,-3.30
2022-12-14T22:44:43.528Z,-3.30
2022-12-14T22:47:11.128Z,-3.50
2022-12-14T22:49:38.789Z,-3.40
2022-12-14T22:52:07.133Z,-3.50
2022-12-14T22:54:37.797Z,-3.50
2022-12-14T22:57:13.743Z,-3.60
2022-12-14T22:59:57.456Z,-3.60
2022-12-14T23:02:28.624Z,-3.60
2022-12-14T23:04:56.959Z,-3.70
2022-12-14T23:07:24.681Z,-3.70
2022-12-14T23:10:11.038Z,-3.70
2022-12-14T23:12:57.141Z,-3.70
2022-12-14T23:15:42.467Z,-3.70
2022-12-14T23:18:28.611Z,-3.80
2022-12-14T23:21:15.494Z,-3.80
2022-12-14T23:24:03.591Z,-3.80
2022-12-14T23:26:50.350Z,-3.70
2022-12-14T23:29:38.263Z,-3.70
2022-12-14T23:32:25.204Z,-3.70
2022-12-14T23:35:13.385Z,-3.80
2022-12-14T23:38:01.456Z,-3.80
2022-12-14T23:40:48.767Z,-3.80
2022-12-14T23:43:35.944Z,-3.80
2022-12-14T23:46:24.486Z,-3.80
2022-12-14T23:49:15.678Z,-3.90
2022-12-14T23:52:03.299Z,-3.90
2022-12-14T23:54:49.449Z,-3.80
2022-12-14T23:57:37.862Z,-3.70
